San Antonio, TX (78201)

1:56 PM CST on February 14, 2016 (GMT -0600)
Dellview | | Change Station
CLOSE
Current Station
Personal Weather Station
Location: San Antonio, TX
Elevation: 823 ft
Nearby Weather Stations

Elev 823 ft 29.50 °N, 98.54 °W | Updated 1 second ago

Mostly Cloudy
Mostly Cloudy
70.3 °F
Feels Like 77 °F
N
4.9
Wind Variable Wind from SSE
Gusts 7.4 mph

Today
High -- | Low -- °F
--% Chance of Precip.
Yesterday
High -- | Low -- °F
Precip. -- in
Pressure 29.86 in
Visibility 10.0 miles
Clouds Scattered Clouds 3000 ft
Mostly Cloudy 25000 ft
Heat Index 77 °F
Dew Point 53 °F
Humidity 55%
Rainfall 0.00 in
Snow Depth Not available.
7:14 AM 6:22 PM
Waxing Crescent, 44% visible
METAR KSAT 141951Z 18009KT 10SM SCT030 BKN250 22/13 A2989 RMK AO2 SLP109 T02170133
Pressure 29.86 in
Visibility 10.0 miles
Clouds Scattered Clouds 3000 ft
Mostly Cloudy 25000 ft
Heat Index 77 °F
Dew Point 53 °F
Humidity 55%
Rainfall 0.00 in
Snow Depth Not available.
7:14 AM 6:22 PM
Waxing Crescent, 44% visible
METAR KSAT 141951Z 18009KT 10SM SCT030 BKN250 22/13 A2989 RMK AO2 SLP109 T02170133

10-Day Weather Forecast

Almanac

Astronomy

Feb. 14, 2016 Rise Set
Actual Time
Civil Twilight
Nautical Twilight
Astronomical Twilight
Moon
Length of Visible Light
Length of Day
Tomorrow will be .
, % of the Moon is Illuminated

Today's Extremes

State Highs State Lows

Community

WunderPhotos

Upload Photos

1,892,879 photos uploaded!

WunderBlog® & News

Nearby

Air Quality

  Air Quality AQ Index Pollutant
Not available.

Snow Depth

Station Depth Elevation

Earthquake Activity

City Distance Mag. Time & Date
Minimum magnitude displayed is 2.5.

Coastal Water Temperatures

Place Temperature

Stations

Nearby Weather Stations

Station Location Temp. Windchill Dew Point Humidity Wind Precip. Elev Updated Type
                   

Watches & Warnings

There are currently no watches in effect.